createdAt,value
2023-01-02T00:01:46.493Z,9.28
2023-01-02T00:04:15.011Z,9.26
2023-01-02T00:06:43.391Z,9.24
2023-01-02T00:09:12.926Z,9.22
2023-01-02T00:11:41.187Z,9.22
2023-01-02T00:14:09.496Z,9.23
2023-01-02T00:16:37.845Z,9.23
2023-01-02T00:19:07.006Z,9.21
2023-01-02T00:21:35.625Z,9.20
2023-01-02T00:24:04.111Z,9.21
2023-01-02T00:26:32.543Z,9.22
2023-01-02T00:29:01.647Z,9.22
2023-01-02T00:31:30.270Z,9.13
2023-01-02T00:33:58.633Z,9.20
2023-01-02T00:36:27.934Z,9.21
2023-01-02T00:38:57.001Z,9.19
2023-01-02T00:41:25.611Z,9.19
2023-01-02T00:43:53.956Z,9.18
2023-01-02T00:46:22.551Z,9.07
2023-01-02T00:48:50.955Z,9.13
2023-01-02T00:51:19.493Z,9.13
2023-01-02T00:53:47.799Z,9.14
2023-01-02T00:56:16.100Z,9.15
2023-01-02T00:58:44.537Z,9.16
2023-01-02T01:01:13.134Z,9.14
2023-01-02T01:03:43.656Z,9.15
2023-01-02T01:06:12.545Z,9.18
2023-01-02T01:08:41.206Z,9.19
2023-01-02T01:11:14.446Z,9.21
2023-01-02T01:13:43.549Z,9.19
2023-01-02T01:16:15.962Z,9.14
2023-01-02T01:18:44.928Z,9.09
2023-01-02T01:21:16.156Z,9.07
2023-01-02T01:23:45.158Z,9.07
2023-01-02T01:26:15.573Z,9.08
2023-01-02T01:28:46.625Z,9.01
2023-01-02T01:31:16.755Z,9.10
2023-01-02T01:33:45.746Z,9.07
2023-01-02T01:36:17.562Z,9.07
2023-01-02T01:38:46.868Z,9.08
2023-01-02T01:41:18.892Z,9.08
2023-01-02T01:43:47.222Z,9.07
2023-01-02T01:46:34.106Z,9.04
2023-01-02T01:49:14.896Z,9.00
2023-01-02T01:51:55.939Z,8.98
2023-01-02T01:54:55.573Z,8.98
2023-01-02T01:57:30.403Z,8.98
2023-01-02T02:00:01.987Z,8.99
2023-01-02T02:02:32.868Z,9.00
2023-01-02T02:05:06.122Z,8.99
2023-01-02T02:07:35.743Z,9.00
2023-01-02T02:10:08.755Z,9.01
2023-01-02T02:12:37.223Z,9.02
2023-01-02T02:15:11.607Z,9.01
2023-01-02T02:17:59.433Z,8.99
2023-01-02T02:20:39.110Z,8.98
2023-01-02T02:23:19.599Z,8.97
2023-01-02T02:26:29.584Z,8.98
2023-01-02T02:29:45.800Z,9.00
2023-01-02T02:32:38.127Z,8.96
2023-01-02T02:35:25.668Z,8.89
2023-01-02T02:38:01.531Z,9.07
2023-01-02T02:41:01.775Z,9.06
2023-01-02T02:43:48.524Z,9.06
2023-01-02T02:46:37.785Z,9.03
2023-01-02T02:49:15.273Z,9.00
2023-01-02T02:51:53.297Z,8.98
2023-01-02T02:54:48.512Z,8.98
2023-01-02T02:57:18.005Z,8.96
2023-01-02T02:59:46.965Z,8.94
2023-01-02T03:02:17.124Z,8.91
2023-01-02T03:04:53.421Z,8.78
2023-01-02T03:07:37.517Z,8.77
2023-01-02T03:10:27.137Z,8.85
2023-01-02T03:12:55.230Z,8.81
2023-01-02T03:15:34.848Z,8.78
2023-01-02T03:18:08.773Z,8.77
2023-01-02T03:20:41.779Z,8.77
2023-01-02T03:23:23.388Z,8.76
2023-01-02T03:25:52.345Z,8.75
2023-01-02T03:28:24.296Z,8.72
2023-01-02T03:30:57.784Z,8.72
2023-01-02T03:33:33.840Z,8.72
2023-01-02T03:36:10.826Z,8.71
2023-01-02T03:38:46.929Z,8.69
2023-01-02T03:41:29.247Z,8.68
2023-01-02T03:43:59.713Z,8.69
2023-01-02T03:46:42.114Z,8.71
2023-01-02T03:49:17.429Z,8.73
2023-01-02T03:51:45.863Z,8.72
2023-01-02T03:54:15.800Z,8.70
2023-01-02T03:57:03.849Z,8.70
2023-01-02T04:00:08.588Z,8.69
2023-01-02T04:03:01.193Z,8.69
2023-01-02T04:05:44.738Z,8.69
2023-01-02T04:08:29.322Z,8.67
2023-01-02T04:11:01.154Z,8.68
2023-01-02T04:13:35.422Z,8.69
2023-01-02T04:16:07.527Z,8.70
2023-01-02T04:18:46.403Z,8.71
2023-01-02T04:21:21.664Z,8.73
2023-01-02T04:23:55.436Z,8.74
2023-01-02T04:26:33.614Z,8.68
2023-01-02T04:29:02.353Z,8.76
2023-01-02T04:31:44.145Z,8.77
2023-01-02T04:34:16.086Z,8.78
2023-01-02T04:36:45.105Z,8.80
2023-01-02T04:39:13.245Z,8.79
2023-01-02T04:41:41.837Z,8.79
2023-01-02T04:44:09.931Z,8.79
2023-01-02T04:46:38.141Z,8.81
2023-01-02T04:49:06.307Z,8.73
2023-01-02T04:51:34.488Z,8.85
2023-01-02T04:54:02.665Z,8.84
2023-01-02T04:56:30.881Z,8.86
2023-01-02T04:58:59.059Z,8.69
2023-01-02T05:01:27.322Z,8.87
2023-01-02T05:03:55.734Z,8.88
2023-01-02T05:06:24.074Z,8.89
2023-01-02T05:08:52.376Z,8.89
2023-01-02T05:11:21.928Z,8.85
2023-01-02T05:13:50.131Z,8.82
2023-01-02T05:16:18.277Z,8.71
2023-01-02T05:18:46.450Z,8.80
2023-01-02T05:21:33.262Z,8.80
2023-01-02T05:24:03.557Z,8.79
2023-01-02T05:26:33.144Z,8.79
2023-01-02T05:29:01.944Z,8.80
2023-01-02T05:31:30.495Z,8.80
2023-01-02T05:33:59.895Z,8.80
2023-01-02T05:36:28.670Z,8.69
2023-01-02T05:38:56.906Z,8.77
2023-01-02T05:41:25.155Z,8.77
2023-01-02T05:43:54.873Z,8.76
2023-01-02T05:46:23.117Z,8.59
2023-01-02T05:48:51.418Z,8.76
2023-01-02T05:51:20.629Z,8.76
2023-01-02T05:53:48.858Z,8.77
2023-01-02T05:56:18.657Z,8.76
2023-01-02T05:58:49.125Z,8.75
2023-01-02T06:01:37.159Z,8.75
2023-01-02T06:04:05.538Z,8.75
2023-01-02T06:06:39.675Z,8.75
2023-01-02T06:09:09.093Z,8.76
2023-01-02T06:11:37.171Z,8.76
2023-01-02T06:14:05.929Z,8.75
2023-01-02T06:16:34.217Z,8.59
2023-01-02T06:19:03.419Z,8.73
2023-01-02T06:21:32.315Z,8.72
2023-01-02T06:24:00.899Z,8.72
2023-01-02T06:26:34.876Z,8.72
2023-01-02T06:29:04.737Z,8.72
2023-01-02T06:31:33.881Z,8.72
2023-01-02T06:34:03.732Z,8.73
2023-01-02T06:36:34.437Z,8.54
2023-01-02T06:39:02.957Z,8.71
2023-01-02T06:41:31.245Z,8.71
2023-01-02T06:43:59.446Z,8.71
2023-01-02T06:46:27.663Z,8.71
2023-01-02T06:48:56.051Z,8.72
2023-01-02T06:51:24.728Z,8.73
2023-01-02T06:53:52.958Z,8.74
2023-01-02T06:56:21.384Z,8.73
2023-01-02T06:58:49.861Z,8.74
2023-01-02T07:01:22.991Z,8.74
2023-01-02T07:03:56.943Z,8.75
2023-01-02T07:06:27.938Z,8.76
2023-01-02T07:08:56.638Z,8.77
2023-01-02T07:11:25.397Z,8.78
2023-01-02T07:13:55.001Z,8.79
2023-01-02T07:16:25.101Z,8.78
2023-01-02T07:18:54.186Z,8.79
2023-01-02T07:21:22.858Z,8.79
2023-01-02T07:23:51.463Z,8.80
2023-01-02T07:26:19.890Z,8.73
2023-01-02T07:28:48.299Z,8.79
2023-01-02T07:31:18.929Z,8.73
2023-01-02T07:33:47.704Z,8.58
2023-01-02T07:36:19.936Z,8.84
2023-01-02T07:38:53.342Z,8.85
2023-01-02T07:41:24.331Z,8.85
2023-01-02T07:43:56.171Z,8.85
2023-01-02T07:46:25.848Z,8.87
2023-01-02T07:48:54.537Z,8.87
2023-01-02T07:51:27.055Z,8.88
2023-01-02T07:53:57.346Z,8.90
2023-01-02T07:56:26.131Z,8.84
2023-01-02T07:58:55.349Z,8.94
2023-01-02T08:01:26.869Z,8.87
2023-01-02T08:03:55.329Z,8.98
2023-01-02T08:06:24.149Z,8.99
2023-01-02T08:08:52.454Z,9.01
2023-01-02T08:11:23.202Z,9.02
2023-01-02T08:13:51.609Z,9.03
2023-01-02T08:16:21.726Z,9.06
2023-01-02T08:18:55.769Z,9.08
2023-01-02T08:21:25.871Z,9.09
2023-01-02T08:23:54.552Z,9.10
2023-01-02T08:26:24.210Z,9.10
2023-01-02T08:28:52.522Z,9.11
2023-01-02T08:31:22.421Z,9.05
2023-01-02T08:33:51.180Z,9.15
2023-01-02T08:36:20.371Z,9.04
2023-01-02T08:38:48.842Z,9.17
2023-01-02T08:41:31.330Z,9.18
2023-01-02T08:44:00.072Z,9.18
2023-01-02T08:46:28.991Z,9.18
2023-01-02T08:48:57.712Z,9.17
2023-01-02T08:51:27.431Z,9.17
2023-01-02T08:53:55.972Z,9.18
2023-01-02T08:56:27.629Z,9.19
2023-01-02T08:58:58.559Z,9.21
2023-01-02T09:01:29.080Z,9.22
2023-01-02T09:03:58.555Z,9.23
2023-01-02T09:06:28.490Z,9.16
2023-01-02T09:08:59.056Z,9.24
2023-01-02T09:11:39.325Z,9.25
2023-01-02T09:14:08.446Z,9.26
2023-01-02T09:16:36.743Z,9.16
2023-01-02T09:19:05.310Z,9.26
2023-01-02T09:21:34.306Z,9.21
2023-01-02T09:24:03.037Z,9.16
2023-01-02T09:26:31.316Z,9.27
2023-01-02T09:29:00.197Z,9.27
2023-01-02T09:31:28.779Z,9.17
2023-01-02T09:33:57.170Z,9.26
2023-01-02T09:36:25.638Z,9.26
2023-01-02T09:38:56.254Z,9.26
2023-01-02T09:41:41.214Z,9.26
2023-01-02T09:44:12.472Z,9.26
2023-01-02T09:47:04.449Z,9.25
2023-01-02T09:49:42.352Z,9.25
2023-01-02T09:52:34.234Z,9.21
2023-01-02T09:55:03.881Z,9.25
2023-01-02T09:57:57.702Z,9.24
2023-01-02T10:00:30.017Z,9.25
2023-01-02T10:03:29.341Z,9.27
2023-01-02T10:06:08.396Z,9.31
2023-01-02T10:08:49.216Z,9.32
2023-01-02T10:11:36.051Z,9.35
2023-01-02T10:14:54.009Z,9.38
2023-01-02T10:17:23.257Z,9.40
2023-01-02T10:20:07.044Z,9.42
2023-01-02T10:22:42.394Z,9.45
2023-01-02T10:25:22.589Z,9.47
2023-01-02T10:28:07.352Z,9.49
2023-01-02T10:30:46.528Z,9.53
2023-01-02T10:33:31.464Z,9.56
2023-01-02T10:36:03.128Z,9.60
2023-01-02T10:38:38.988Z,9.62
2023-01-02T10:41:07.342Z,9.64
2023-01-02T10:43:37.210Z,9.66
2023-01-02T10:46:05.659Z,9.67
2023-01-02T10:48:37.466Z,9.57
2023-01-02T10:51:12.816Z,9.70
2023-01-02T10:53:41.220Z,9.71
2023-01-02T10:56:19.327Z,9.73
2023-01-02T10:58:49.986Z,9.76
2023-01-02T11:01:21.492Z,9.78
2023-01-02T11:04:12.268Z,9.81
2023-01-02T11:06:55.292Z,9.82
2023-01-02T11:09:25.380Z,9.83
2023-01-02T11:11:56.856Z,9.85
2023-01-02T11:14:34.312Z,9.88
2023-01-02T11:17:24.150Z,9.91
2023-01-02T11:19:55.131Z,9.93
2023-01-02T11:22:33.307Z,9.94
2023-01-02T11:25:03.967Z,9.96
2023-01-02T11:27:42.940Z,9.97
2023-01-02T11:30:48.125Z,9.97
2023-01-02T11:33:24.654Z,9.98
2023-01-02T11:35:56.585Z,9.96
2023-01-02T11:38:30.760Z,10.01
2023-01-02T11:41:02.478Z,10.02
2023-01-02T11:43:49.317Z,10.01
2023-01-02T11:46:33.633Z,9.99
2023-01-02T11:49:12.032Z,9.97
2023-01-02T11:51:41.254Z,9.97
2023-01-02T11:54:18.872Z,9.97
2023-01-02T11:56:50.361Z,9.97
2023-01-02T11:59:46.894Z,9.72
2023-01-02T12:02:21.156Z,9.95
2023-01-02T12:04:49.941Z,9.93
2023-01-02T12:07:37.376Z,9.93
2023-01-02T12:10:14.896Z,9.95
2023-01-02T12:13:15.237Z,9.95
2023-01-02T12:16:13.165Z,9.99
2023-01-02T12:19:08.389Z,10.02
2023-01-02T12:22:14.422Z,10.06
2023-01-02T12:25:02.615Z,10.09
2023-01-02T12:27:53.552Z,10.13
2023-01-02T12:30:22.824Z,10.03
2023-01-02T12:33:19.908Z,10.12
2023-01-02T12:35:53.973Z,10.25
2023-01-02T12:38:54.251Z,10.28
2023-01-02T12:42:00.517Z,10.32
2023-01-02T12:44:53.929Z,10.37
2023-01-02T12:47:33.559Z,10.39
2023-01-02T12:50:23.049Z,10.41
2023-01-02T12:53:09.233Z,10.43
2023-01-02T12:55:52.861Z,10.43
2023-01-02T12:58:42.298Z,10.47
2023-01-02T13:01:25.848Z,10.48
2023-01-02T13:04:14.707Z,10.49
2023-01-02T13:07:01.818Z,10.52
2023-01-02T13:09:39.536Z,10.53
2023-01-02T13:12:19.607Z,10.54
2023-01-02T13:14:56.462Z,10.55
2023-01-02T13:17:35.144Z,10.57
2023-01-02T13:20:21.976Z,10.59
2023-01-02T13:22:59.576Z,10.62
2023-01-02T13:25:30.918Z,10.63
2023-01-02T13:28:00.614Z,10.67
2023-01-02T13:30:34.876Z,10.69
2023-01-02T13:33:11.889Z,10.60
2023-01-02T13:35:40.144Z,10.68
2023-01-02T13:38:12.666Z,10.68
2023-01-02T13:40:41.823Z,10.67
2023-01-02T13:43:17.836Z,10.66
2023-01-02T13:45:50.197Z,10.66
2023-01-02T13:48:24.392Z,10.66
2023-01-02T13:51:05.979Z,10.67
2023-01-02T13:53:48.499Z,10.67
2023-01-02T13:56:19.593Z,10.68
2023-01-02T13:58:57.669Z,10.67
2023-01-02T14:01:28.221Z,10.68
2023-01-02T14:04:08.680Z,10.69
2023-01-02T14:06:42.073Z,10.69
2023-01-02T14:09:21.730Z,10.68
2023-01-02T14:11:58.160Z,10.68
2023-01-02T14:14:50.942Z,10.69
2023-01-02T14:17:28.561Z,10.70
2023-01-02T14:20:24.049Z,10.71
2023-01-02T14:22:58.832Z,10.70
2023-01-02T14:25:27.705Z,10.70
2023-01-02T14:28:33.997Z,10.69
2023-01-02T14:31:15.886Z,10.73
2023-01-02T14:33:52.200Z,10.66
2023-01-02T14:36:26.083Z,10.75
2023-01-02T14:38:56.991Z,10.76
2023-01-02T14:42:08.883Z,10.77
2023-01-02T14:44:43.363Z,10.78
2023-01-02T14:47:16.300Z,10.80
2023-01-02T14:49:48.566Z,10.80
2023-01-02T14:52:33.254Z,10.82
2023-01-02T14:55:10.975Z,10.86
2023-01-02T14:57:42.029Z,10.91
2023-01-02T15:00:21.332Z,10.97
2023-01-02T15:02:56.905Z,11.04
2023-01-02T15:05:36.151Z,11.12
2023-01-02T15:08:08.599Z,11.19
2023-01-02T15:10:55.771Z,11.24
2023-01-02T15:13:27.726Z,11.28
2023-01-02T15:16:00.067Z,11.31
2023-01-02T15:18:36.019Z,11.32
2023-01-02T15:21:11.905Z,11.32
2023-01-02T15:23:48.656Z,11.33
2023-01-02T15:26:31.519Z,11.32
2023-01-02T15:29:19.105Z,11.22
2023-01-02T15:31:55.778Z,11.26
2023-01-02T15:34:29.680Z,11.23
2023-01-02T15:37:07.195Z,11.20
2023-01-02T15:39:44.504Z,11.18
2023-01-02T15:42:43.598Z,11.17
2023-01-02T15:45:16.028Z,11.12
2023-01-02T15:47:48.181Z,11.24
2023-01-02T15:50:28.639Z,11.26
2023-01-02T15:53:04.119Z,11.26
2023-01-02T15:55:38.917Z,11.27
2023-01-02T15:58:16.457Z,11.27
2023-01-02T16:00:46.527Z,11.28
2023-01-02T16:04:01.221Z,11.27
2023-01-02T16:06:38.743Z,11.27
2023-01-02T16:09:17.656Z,11.31
2023-01-02T16:11:52.280Z,11.36
2023-01-02T16:14:36.392Z,11.40
2023-01-02T16:17:34.719Z,11.42
2023-01-02T16:20:08.114Z,11.46
2023-01-02T16:22:59.205Z,11.47
2023-01-02T16:25:33.253Z,11.48
2023-01-02T16:28:36.000Z,11.50
2023-01-02T16:31:15.988Z,11.50
2023-01-02T16:33:46.053Z,11.52
2023-01-02T16:36:14.183Z,11.54
2023-01-02T16:38:52.474Z,11.57
2023-01-02T16:41:34.730Z,11.58
2023-01-02T16:44:04.880Z,11.60
2023-01-02T16:46:33.917Z,11.60
2023-01-02T16:49:07.379Z,11.60
2023-01-02T16:51:36.977Z,11.62
2023-01-02T16:54:05.568Z,11.56
2023-01-02T16:56:33.936Z,11.66
2023-01-02T16:59:02.316Z,11.67
2023-01-02T17:01:30.970Z,11.68
2023-01-02T17:03:59.434Z,11.68
2023-01-02T17:06:27.906Z,11.68
2023-01-02T17:08:56.224Z,11.70
2023-01-02T17:11:25.161Z,11.71
2023-01-02T17:13:56.136Z,11.72
2023-01-02T17:16:24.830Z,11.72
2023-01-02T17:18:53.186Z,11.73
2023-01-02T17:21:22.033Z,11.74
2023-01-02T17:23:55.205Z,11.75
2023-01-02T17:26:23.540Z,11.75
2023-01-02T17:28:52.567Z,11.75
2023-01-02T17:31:25.537Z,11.75
2023-01-02T17:33:54.446Z,11.74
2023-01-02T17:36:23.343Z,11.73
2023-01-02T17:38:51.689Z,11.73
2023-01-02T17:41:20.192Z,11.72
2023-01-02T17:44:02.053Z,11.72
2023-01-02T17:47:15.798Z,11.72
2023-01-02T17:49:22.638Z,11.65
2023-01-02T17:51:50.981Z,11.72
2023-01-02T17:54:19.971Z,11.72
2023-01-02T17:56:48.848Z,11.59
2023-01-02T17:59:19.848Z,11.74
2023-01-02T18:01:48.471Z,11.76
2023-01-02T18:04:17.279Z,11.67
2023-01-02T18:06:45.650Z,11.77
2023-01-02T18:09:14.080Z,11.78
2023-01-02T18:11:42.973Z,11.78
2023-01-02T18:14:19.229Z,11.77
2023-01-02T18:16:48.544Z,11.77
2023-01-02T18:19:22.020Z,11.76
2023-01-02T18:21:51.103Z,11.75
2023-01-02T18:24:31.488Z,11.73
2023-01-02T18:27:27.690Z,11.71
2023-01-02T18:30:07.877Z,11.69
2023-01-02T18:32:41.093Z,11.68
2023-01-02T18:35:46.672Z,11.66
2023-01-02T18:38:17.733Z,11.64
2023-01-02T18:40:47.223Z,11.62
2023-01-02T18:43:26.569Z,11.60
2023-01-02T18:45:58.967Z,11.41
2023-01-02T18:48:27.356Z,11.57
2023-01-02T18:51:01.515Z,11.55
2023-01-02T18:53:43.612Z,11.54
2023-01-02T18:56:24.722Z,11.52
2023-01-02T18:59:02.072Z,11.49
2023-01-02T19:01:35.874Z,11.47
2023-01-02T19:04:18.977Z,11.39
2023-01-02T19:07:00.003Z,11.43
2023-01-02T19:09:32.597Z,11.27
2023-01-02T19:12:45.317Z,11.38
2023-01-02T19:15:44.491Z,11.34
2023-01-02T19:18:15.696Z,11.31
2023-01-02T19:20:48.052Z,11.28
2023-01-02T19:23:28.368Z,11.25
2023-01-02T19:26:07.606Z,11.23
2023-01-02T19:28:36.149Z,11.23
2023-01-02T19:31:14.138Z,11.21
2023-01-02T19:33:49.064Z,11.19
2023-01-02T19:36:22.750Z,11.18
2023-01-02T19:38:51.451Z,11.16
2023-01-02T19:41:40.070Z,11.13
2023-01-02T19:44:08.502Z,10.56
2023-01-02T19:46:36.967Z,11.09
2023-01-02T19:49:06.601Z,11.06
2023-01-02T19:51:35.008Z,11.04
2023-01-02T19:54:04.651Z,11.02
2023-01-02T19:56:33.420Z,11.00
2023-01-02T19:59:01.658Z,10.99
2023-01-02T20:01:30.181Z,10.98
2023-01-02T20:03:59.257Z,10.97
2023-01-02T20:06:28.730Z,10.82
2023-01-02T20:08:57.523Z,10.96
2023-01-02T20:11:44.515Z,10.96
2023-01-02T20:14:13.285Z,10.95
2023-01-02T20:16:41.724Z,10.95
2023-01-02T20:19:10.642Z,10.95
2023-01-02T20:21:38.976Z,10.94
2023-01-02T20:24:07.786Z,10.94
2023-01-02T20:26:36.176Z,10.83
2023-01-02T20:29:05.142Z,10.94
2023-01-02T20:31:33.554Z,10.93
2023-01-02T20:34:03.479Z,10.93
2023-01-02T20:36:32.088Z,10.93
2023-01-02T20:39:00.405Z,10.82
2023-01-02T20:41:28.754Z,10.91
2023-01-02T20:43:57.145Z,10.92
2023-01-02T20:46:25.465Z,10.92
2023-01-02T20:48:53.785Z,10.93
2023-01-02T20:51:22.086Z,10.94
2023-01-02T20:53:50.426Z,10.96
2023-01-02T20:56:18.786Z,10.94
2023-01-02T20:58:47.183Z,10.99
2023-01-02T21:01:15.863Z,11.02
2023-01-02T21:03:44.466Z,11.03
2023-01-02T21:06:13.210Z,11.05
2023-01-02T21:08:41.573Z,11.06
2023-01-02T21:11:10.343Z,11.08
2023-01-02T21:13:38.822Z,11.09
2023-01-02T21:16:07.281Z,11.10
2023-01-02T21:18:40.309Z,11.12
2023-01-02T21:21:19.077Z,11.01
2023-01-02T21:23:48.970Z,10.98
2023-01-02T21:26:19.586Z,11.18
2023-01-02T21:28:48.710Z,11.17
2023-01-02T21:31:19.387Z,11.15
2023-01-02T21:33:48.248Z,11.12
2023-01-02T21:36:17.013Z,11.07
2023-01-02T21:38:45.447Z,11.04
2023-01-02T21:41:32.692Z,10.97
2023-01-02T21:44:01.132Z,10.86
2023-01-02T21:46:29.596Z,10.81
2023-01-02T21:48:58.091Z,10.72
2023-01-02T21:51:32.187Z,10.62
2023-01-02T21:54:01.110Z,10.53
2023-01-02T21:56:30.825Z,10.43
2023-01-02T21:58:59.575Z,10.34
2023-01-02T22:01:28.023Z,10.25
2023-01-02T22:03:57.539Z,10.20
2023-01-02T22:06:26.048Z,10.14
2023-01-02T22:08:54.423Z,10.06
2023-01-02T22:11:41.216Z,9.96
2023-01-02T22:14:09.802Z,9.74
2023-01-02T22:16:38.247Z,9.71
2023-01-02T22:19:06.632Z,9.60
2023-01-02T22:21:35.770Z,9.53
2023-01-02T22:24:04.344Z,9.47
2023-01-02T22:26:33.855Z,9.41
2023-01-02T22:29:02.881Z,9.35
2023-01-02T22:31:31.268Z,9.30
2023-01-02T22:34:00.401Z,9.25
2023-01-02T22:36:31.783Z,9.21
2023-01-02T22:42:57.691Z,9.15
2023-01-02T22:45:07.491Z,9.12
2023-01-02T22:47:37.599Z,9.10
2023-01-02T22:50:11.869Z,9.08
2023-01-02T22:52:45.001Z,9.07
2023-01-02T22:55:23.660Z,9.07
2023-01-02T22:57:52.354Z,9.07
2023-01-02T23:00:23.290Z,9.05
2023-01-02T23:02:53.157Z,9.04
2023-01-02T23:05:22.190Z,8.89
2023-01-02T23:07:50.562Z,9.00
2023-01-02T23:10:19.838Z,8.91
2023-01-02T23:12:48.294Z,8.97
2023-01-02T23:15:16.632Z,8.99
2023-01-02T23:18:03.262Z,8.98
2023-01-02T23:20:31.699Z,8.98
2023-01-02T23:23:01.048Z,8.89
2023-01-02T23:25:29.776Z,8.97
2023-01-02T23:27:58.659Z,8.96
2023-01-02T23:30:26.936Z,8.96
2023-01-02T23:32:55.229Z,8.94
2023-01-02T23:35:23.370Z,8.92
2023-01-02T23:37:52.368Z,8.90
2023-01-02T23:40:20.607Z,8.88
2023-01-02T23:42:48.967Z,8.85
2023-01-02T23:45:17.573Z,8.85
2023-01-02T23:47:45.830Z,8.83
2023-01-02T23:50:15.691Z,8.80
2023-01-02T23:52:43.888Z,8.79
2023-01-02T23:55:12.041Z,8.78
2023-01-02T23:57:40.301Z,8.76
